Aviation Digital Data Service (ADDS)

Output produced by METARs form (2040 UTC 08 February 2023)
found at http://aviationweather.gov/metar/data/
 
METAR text: KOMN 081950Z 08008KT 7SM SCT030 23/14 A3024
Conditions at: KOMN (ORMOND BEACH VOR, FL, US) observed 1950 UTC 08 February 2023
Temperature: 23.0°C (73°F)
Dewpoint: 14.0°C (57°F) [RH = 57%]
Pressure (altimeter): 30.24 inches Hg (1024.1 mb)
Winds: from the E (80 degrees) at 9 MPH (8 knots; 4.1 m/s)
Visibility: 7 miles (11 km)
Ceiling: at least 12,000 feet AGL
Clouds: scattered clouds at 3000 feet AGL
Weather: no significant weather observed at this time

METAR text: KOMN 081850Z 08008KT 7SM SCT030 23/14 A3025
Conditions at: KOMN (ORMOND BEACH VOR, FL, US) observed 1850 UTC 08 February 2023
Temperature: 23.0°C (73°F)
Dewpoint: 14.0°C (57°F) [RH = 57%]
Pressure (altimeter): 30.25 inches Hg (1024.5 mb)
Winds: from the E (80 degrees) at 9 MPH (8 knots; 4.1 m/s)
Visibility: 7 miles (11 km)
Ceiling: at least 12,000 feet AGL
Clouds: scattered clouds at 3000 feet AGL
Weather: no significant weather observed at this time